Terminal Aerodrome Forecast
Issued by NWS

Home | Current Version | Previous Version | Text Only | Print | Product List | Glossary On
Versions: 1 2 3 4 5 6 7 8 9 10 11 12 13 14 15 16 17 18
000
FTUS44 KLZK 292300
TAFLIT
TAF
KLIT 292336Z 3000/3024 28005KT P6SM BKN150
     FM300400 VRB06KT P6SM OVC050
      TEMPO 3004/3008 5SM TSRA BR OVC025CB
     FM300900 36005KT P6SM SCT050
     FM301500 08006KT P6SM SCT250=

USA.gov is the U.S. government's official web portal to all federal, state and local government web resources and services.